Aérodrome :
LOGIN :

S'inscrire | Disclaimer

   EN    FR    IT 

 










Légende :    VFR   VFR Marginal   IFR   IFR Intensif   IFR Très Intensif
Visi : 
Plafond : 
>= 8 km
>= 3000ft
5 à 8 km
1000 à 3000 ft
1500m à 5 km
500 à 1000 ft
800 à 1500m
200 à 500 ft
< 800m
< 200 ft
Symboles :   Orages  Brouillard  Fortes neiges  Fortes précipitations  Vent > 20 kt
SIGMETs :   Divers  Orages  Givrage  Turbulence  Onde Orograph.  Cendres Volcan.







- Altitude de l'aérodrome : 1090 ft
- Code IATA : CFE
- Voir les cartes d'approche


LFLC - Clermont-Ferrand Auvergne

DERNIER METAR :
  • 280730Z AUTO 20004KT 160V240 9999 -RA SCT033 BKN040 OVC046 05/04 Q1000 TEMPO 23015G30KT SHRA BKN025TCU

METARs EXPIRÉS :
  • 280700Z AUTO 00000KT 9999 -RA BKN034 OVC042 04/03 Q1000 TEMPO 23015G30KT SHRA BKN025TCU
  • 280630Z AUTO 11006KT 9999 -RA FEW027 BKN036 OVC044 05/03 Q1001 TEMPO 23015G30KT SHRA BKN025TCU
  • 280600Z AUTO 11006KT 9999 -RA BKN035 OVC042 05/03 Q1001 TEMPO 23015G30KT SHRA BKN025TCU
  • 280530Z AUTO 09005KT 9999 -RA BKN033 OVC046 05/03 Q1002 TEMPO 23015G30KT SHRA BKN025TCU
  • 280500Z AUTO 30004KT 250V340 9999 -RA BKN029 OVC036 06/01 Q1002 TEMPO 23015G30KT SHRA BKN025TCU
  • 280430Z AUTO 00000KT 9999 -RA OVC033 06/02 Q1003 TEMPO 23015G30KT SHRA BKN025TCU

TAF AMD TAF LFLC
Valide du 28 à 07h jusqu'au 01 à 03h UTC


280724Z 2807/0103 20008KT 9999 BKN026
BECMG 2807/2809 20015G25KT
PROB40
TEMPO 2807/2811 23015G30KT SHRA BKN025TCU
PROB40
TEMPO 2810/2817 24020G40KT TSRA SCT025CB
ATIS : +33 4 73 62 74 38
Pas de NOTAMs connus pour ce terrain.



MET'MAP, la Météo Aéronautique d'un coup d'oeil ! - Copyright ORBIFLY Décembre 2007 - Disclaimer

ORBIFLY MET'MAP TEAM :

Programmation & Développement : Alexandra Zaïnal
Conception & Développement : Baudouin d'Aumeries
Co-Programmation & Développement : Marc-Olivier Méhu
Soutien technique & logistique : Manuel Goepfert

Contact : metmap@orbifly.com




SOURCES & CREDITS :

   NOAA